createdAt,value
2019-03-21T00:02:00.556Z,99.90
2019-03-21T00:04:28.773Z,99.90
2019-03-21T00:06:57.012Z,99.90
2019-03-21T00:09:25.254Z,99.90
2019-03-21T00:11:56.883Z,99.90
2019-03-21T00:14:31.193Z,99.90
2019-03-21T00:16:59.586Z,99.90
2019-03-21T00:19:27.833Z,99.90
2019-03-21T00:21:56.098Z,99.90
2019-03-21T00:24:24.318Z,99.90
2019-03-21T00:26:52.554Z,99.90
2019-03-21T00:29:20.789Z,99.90
2019-03-21T00:31:49.033Z,99.90
2019-03-21T00:34:17.306Z,99.90
2019-03-21T00:36:45.595Z,99.90
2019-03-21T00:39:13.810Z,99.90
2019-03-21T00:41:42.094Z,99.90
2019-03-21T00:44:18.091Z,99.90
2019-03-21T00:46:40.344Z,99.90
2019-03-21T00:49:08.559Z,99.90
2019-03-21T00:51:36.799Z,99.90
2019-03-21T00:54:05.173Z,99.90
2019-03-21T00:56:33.423Z,99.90
2019-03-21T00:59:01.658Z,99.90
2019-03-21T01:01:29.899Z,99.90
2019-03-21T01:03:58.198Z,99.90
2019-03-21T01:06:26.414Z,99.90
2019-03-21T01:08:54.670Z,99.90
2019-03-21T01:11:22.889Z,99.90
2019-03-21T01:13:51.122Z,99.90
2019-03-21T01:16:19.370Z,99.90
2019-03-21T01:18:47.950Z,99.90
2019-03-21T01:21:16.214Z,99.90
2019-03-21T01:23:44.439Z,99.90
2019-03-21T01:26:14.287Z,99.90
2019-03-21T01:28:42.609Z,99.90
2019-03-21T01:31:10.832Z,99.90
2019-03-21T01:33:39.066Z,99.90
2019-03-21T01:36:07.954Z,99.90
2019-03-21T01:38:36.184Z,99.90
2019-03-21T01:41:12.793Z,99.90
2019-03-21T01:43:41.002Z,99.90
2019-03-21T01:46:12.649Z,99.90
2019-03-21T01:48:40.891Z,99.90
2019-03-21T01:51:09.105Z,99.90
2019-03-21T01:53:37.344Z,99.90
2019-03-21T01:56:05.560Z,99.90
2019-03-21T01:58:33.822Z,99.90
2019-03-21T02:01:02.041Z,99.90
2019-03-21T02:03:30.295Z,99.90
2019-03-21T02:05:58.531Z,99.90
2019-03-21T02:08:26.768Z,99.90
2019-03-21T02:10:54.998Z,99.90
2019-03-21T02:13:23.260Z,99.90
2019-03-21T02:15:51.498Z,99.90
2019-03-21T02:18:19.724Z,99.90
2019-03-21T02:20:47.962Z,99.90
2019-03-21T02:23:16.233Z,99.90
2019-03-21T02:25:45.601Z,99.90
2019-03-21T02:28:13.820Z,99.90
2019-03-21T02:30:44.024Z,99.90
2019-03-21T02:33:32.716Z,99.90
2019-03-21T02:36:02.692Z,99.90
2019-03-21T02:38:30.945Z,99.90
2019-03-21T02:41:11.610Z,99.90
2019-03-21T02:43:40.197Z,99.90
2019-03-21T02:46:08.415Z,99.90
2019-03-21T02:48:36.666Z,99.90
2019-03-21T02:51:06.239Z,99.90
2019-03-21T02:53:34.472Z,99.90
2019-03-21T02:56:04.138Z,99.90
2019-03-21T02:58:32.391Z,99.90
2019-03-21T03:01:20.030Z,99.90
2019-03-21T03:03:48.292Z,99.90
2019-03-21T03:06:16.523Z,99.90
2019-03-21T03:08:44.759Z,99.90
2019-03-21T03:11:16.518Z,99.90
2019-03-21T03:13:47.697Z,99.90
2019-03-21T03:16:15.944Z,99.90
2019-03-21T03:18:44.175Z,99.90
2019-03-21T03:21:12.481Z,99.90
2019-03-21T03:23:40.691Z,99.90
2019-03-21T03:26:08.948Z,99.90
2019-03-21T03:28:42.878Z,99.90
2019-03-21T03:31:11.150Z,99.90
2019-03-21T03:33:39.389Z,99.90
2019-03-21T03:36:07.626Z,99.90
2019-03-21T03:38:35.868Z,99.90
2019-03-21T03:41:07.231Z,99.90
2019-03-21T03:43:35.479Z,99.90
2019-03-21T03:46:03.710Z,99.90
2019-03-21T03:48:31.967Z,99.90
2019-03-21T03:51:00.216Z,99.90
2019-03-21T03:53:28.458Z,99.90
2019-03-21T03:55:56.670Z,99.90
2019-03-21T03:58:29.230Z,99.90
2019-03-21T04:00:57.521Z,99.90
2019-03-21T04:03:27.610Z,99.90
2019-03-21T04:05:55.895Z,99.90
2019-03-21T04:08:24.170Z,99.90
2019-03-21T04:10:54.245Z,99.90
2019-03-21T04:13:22.476Z,99.90
2019-03-21T04:15:53.254Z,99.90
2019-03-21T04:18:23.014Z,99.90
2019-03-21T04:20:54.257Z,99.90
2019-03-21T04:23:41.917Z,99.90
2019-03-21T04:26:22.440Z,99.90
2019-03-21T04:28:51.046Z,99.90
2019-03-21T04:31:19.288Z,99.90
2019-03-21T04:33:49.256Z,99.90
2019-03-21T04:36:17.494Z,99.90
2019-03-21T04:38:45.734Z,99.90
2019-03-21T04:41:13.957Z,99.90
2019-03-21T04:43:42.195Z,99.90
2019-03-21T04:46:10.420Z,99.90
2019-03-21T04:48:38.666Z,99.90
2019-03-21T04:51:06.891Z,99.90
2019-03-21T04:53:35.109Z,99.90
2019-03-21T04:56:03.419Z,99.90
2019-03-21T04:58:31.659Z,99.90
2019-03-21T05:00:59.967Z,99.90
2019-03-21T05:03:30.487Z,99.90
2019-03-21T05:05:58.729Z,99.90
2019-03-21T05:08:26.946Z,99.90
2019-03-21T05:10:55.253Z,99.90
2019-03-21T05:13:23.488Z,99.90
2019-03-21T05:16:14.931Z,99.90
2019-03-21T05:18:48.689Z,99.90
2019-03-21T05:21:20.288Z,99.90
2019-03-21T05:23:48.552Z,99.90
2019-03-21T05:26:16.783Z,99.90
2019-03-21T05:28:45.008Z,99.90
2019-03-21T05:31:19.903Z,99.90
2019-03-21T05:33:48.158Z,99.90
2019-03-21T05:36:16.410Z,99.90
2019-03-21T05:38:44.631Z,99.90
2019-03-21T05:41:12.901Z,99.90
2019-03-21T05:43:47.388Z,99.90
2019-03-21T05:46:25.983Z,99.90
2019-03-21T05:48:46.527Z,99.90
2019-03-21T05:51:14.756Z,99.90
2019-03-21T05:53:42.996Z,99.90
2019-03-21T05:56:11.232Z,99.90
2019-03-21T05:58:39.497Z,99.90
2019-03-21T06:01:14.015Z,99.90
2019-03-21T06:03:50.417Z,99.90
2019-03-21T06:06:27.821Z,99.90
2019-03-21T06:08:56.066Z,99.90
2019-03-21T06:11:24.289Z,99.90
2019-03-21T06:13:52.540Z,99.90
2019-03-21T06:16:20.778Z,99.90
2019-03-21T06:19:19.001Z,99.90
2019-03-21T06:21:58.840Z,99.90
2019-03-21T06:24:48.325Z,99.90
2019-03-21T06:27:30.743Z,99.90
2019-03-21T06:29:59.031Z,99.90
2019-03-21T06:32:27.731Z,99.90
2019-03-21T06:34:56.581Z,99.90
2019-03-21T06:37:28.310Z,99.90
2019-03-21T06:39:55.430Z,99.90
2019-03-21T06:42:23.684Z,99.90
2019-03-21T06:44:51.921Z,99.90
2019-03-21T06:47:20.190Z,99.90
2019-03-21T06:49:48.431Z,99.90
2019-03-21T06:52:16.662Z,99.90
2019-03-21T06:54:44.911Z,99.90
2019-03-21T06:57:13.167Z,99.90
2019-03-21T06:59:41.380Z,99.90
2019-03-21T07:02:09.598Z,99.90
2019-03-21T07:04:37.860Z,99.90
2019-03-21T07:07:08.491Z,99.90
2019-03-21T07:09:36.048Z,99.90
2019-03-21T07:12:04.318Z,99.90
2019-03-21T07:14:32.554Z,99.90
2019-03-21T07:17:00.994Z,99.90
2019-03-21T07:19:29.341Z,99.90
2019-03-21T07:21:57.594Z,99.90
2019-03-21T07:24:25.841Z,99.90
2019-03-21T07:26:54.068Z,99.90
2019-03-21T07:29:22.308Z,99.90
2019-03-21T07:31:50.551Z,99.90
2019-03-21T07:34:18.808Z,99.90
2019-03-21T07:36:47.042Z,99.90
2019-03-21T07:39:15.284Z,99.90
2019-03-21T07:41:43.530Z,99.90
2019-03-21T07:44:11.756Z,99.90
2019-03-21T07:46:40.025Z,99.90
2019-03-21T07:49:08.252Z,99.90
2019-03-21T07:51:36.493Z,99.90
2019-03-21T07:54:04.730Z,99.90
2019-03-21T07:56:32.944Z,99.90
2019-03-21T07:59:01.206Z,99.90
2019-03-21T08:01:29.430Z,99.90
2019-03-21T08:03:57.672Z,99.90
2019-03-21T08:06:25.992Z,99.90
2019-03-21T08:08:54.211Z,99.90
2019-03-21T08:11:22.465Z,99.90
2019-03-21T08:13:50.725Z,99.90
2019-03-21T08:16:18.959Z,99.90
2019-03-21T08:18:47.209Z,99.90
2019-03-21T08:21:15.432Z,99.90
2019-03-21T08:23:56.357Z,99.90
2019-03-21T08:26:24.583Z,99.90
2019-03-21T08:28:52.836Z,99.90
2019-03-21T08:31:21.063Z,99.90
2019-03-21T08:33:49.681Z,99.90
2019-03-21T08:36:17.919Z,99.90
2019-03-21T08:38:46.171Z,99.20
2019-03-21T08:41:14.393Z,98.20
2019-03-21T08:43:42.643Z,99.90
2019-03-21T08:46:10.873Z,98.80
2019-03-21T08:48:39.126Z,97.80
2019-03-21T08:51:08.734Z,97.80
2019-03-21T08:53:37.242Z,96.90
2019-03-21T08:56:05.470Z,97.00
2019-03-21T08:58:33.706Z,95.40
2019-03-21T09:01:01.955Z,94.90
2019-03-21T09:03:30.195Z,95.20
2019-03-21T09:05:58.418Z,95.20
2019-03-21T09:08:26.665Z,95.80
2019-03-21T09:10:54.930Z,96.20
2019-03-21T09:13:23.169Z,95.90
2019-03-21T09:15:51.406Z,91.70
2019-03-21T09:18:19.658Z,88.90
2019-03-21T09:20:47.894Z,84.20
2019-03-21T09:23:16.144Z,83.00
2019-03-21T09:25:44.386Z,77.00
2019-03-21T09:28:14.235Z,78.90
2019-03-21T09:30:42.678Z,72.50
2019-03-21T09:33:10.918Z,70.90
2019-03-21T09:35:39.181Z,67.30
2019-03-21T09:38:07.434Z,64.90
2019-03-21T09:40:35.646Z,70.10
2019-03-21T09:43:03.892Z,47.60
2019-03-21T09:45:32.116Z,47.20
2019-03-21T09:48:00.354Z,45.00
2019-03-21T09:50:31.426Z,45.10
2019-03-21T09:52:59.668Z,45.00
2019-03-21T09:55:27.916Z,43.70
2019-03-21T09:57:56.423Z,43.40
2019-03-21T10:00:37.378Z,42.00
2019-03-21T10:03:05.788Z,43.10
2019-03-21T10:05:34.027Z,42.60
2019-03-21T10:08:02.630Z,44.70
2019-03-21T10:10:35.575Z,39.80
2019-03-21T10:13:04.512Z,39.90
2019-03-21T10:15:32.730Z,40.70
2019-03-21T10:18:00.996Z,40.10
2019-03-21T10:20:29.212Z,39.70
2019-03-21T10:22:57.463Z,37.90
2019-03-21T10:25:26.787Z,37.90
2019-03-21T10:27:55.264Z,38.40
2019-03-21T10:30:37.914Z,37.10
2019-03-21T10:33:08.269Z,35.90
2019-03-21T10:35:36.518Z,34.80
2019-03-21T10:38:05.179Z,37.40
2019-03-21T10:40:33.411Z,36.00
2019-03-21T10:43:01.648Z,35.30
2019-03-21T10:45:29.889Z,33.00
2019-03-21T10:47:58.138Z,36.20
2019-03-21T10:50:33.762Z,35.90
2019-03-21T10:53:01.982Z,33.70
2019-03-21T10:55:30.237Z,33.50
2019-03-21T10:57:58.530Z,32.60
2019-03-21T11:00:26.885Z,34.50
2019-03-21T11:02:55.150Z,33.50
2019-03-21T11:05:23.484Z,32.60
2019-03-21T11:07:51.830Z,31.20
2019-03-21T11:10:20.045Z,30.40
2019-03-21T11:12:48.304Z,30.20
2019-03-21T11:15:16.528Z,30.60
2019-03-21T11:17:44.785Z,28.20
2019-03-21T11:20:28.053Z,28.20
2019-03-21T11:22:56.296Z,28.80
2019-03-21T11:25:24.531Z,27.00
2019-03-21T11:27:52.857Z,26.20
2019-03-21T11:30:24.336Z,25.80
2019-03-21T11:32:52.584Z,26.20
2019-03-21T11:35:20.814Z,25.10
2019-03-21T11:37:49.068Z,25.10
2019-03-21T11:40:17.310Z,24.30
2019-03-21T11:42:45.538Z,22.70
2019-03-21T11:45:15.084Z,23.20
2019-03-21T11:47:43.521Z,22.00
2019-03-21T11:50:11.773Z,20.90
2019-03-21T11:52:41.088Z,22.30
2019-03-21T11:55:09.721Z,21.70
2019-03-21T11:57:37.972Z,21.20
2019-03-21T12:00:11.742Z,20.10
2019-03-21T12:02:39.958Z,20.20
2019-03-21T12:05:08.448Z,20.50
2019-03-21T12:07:36.687Z,21.50
2019-03-21T12:10:10.318Z,21.00
2019-03-21T12:12:38.548Z,19.80
2019-03-21T12:15:10.621Z,20.60
2019-03-21T12:17:38.864Z,19.90
2019-03-21T12:20:32.149Z,19.90
2019-03-21T12:23:00.370Z,19.00
2019-03-21T12:25:28.595Z,19.30
2019-03-21T12:27:56.925Z,18.70
2019-03-21T12:30:33.578Z,18.90
2019-03-21T12:33:01.845Z,17.40
2019-03-21T12:35:30.062Z,17.30
2019-03-21T12:37:58.323Z,17.70
2019-03-21T12:40:26.836Z,18.80
2019-03-21T12:42:55.058Z,17.30
2019-03-21T12:45:23.316Z,17.50
2019-03-21T12:47:51.576Z,18.10
2019-03-21T12:50:19.815Z,18.10
2019-03-21T12:52:48.056Z,18.10
2019-03-21T12:55:16.312Z,18.30
2019-03-21T12:57:44.568Z,16.20
2019-03-21T13:00:14.036Z,16.30
2019-03-21T13:02:43.291Z,16.70
2019-03-21T13:05:29.187Z,16.60
2019-03-21T13:07:57.508Z,16.80
2019-03-21T13:10:25.727Z,17.80
2019-03-21T13:12:53.978Z,17.10
2019-03-21T13:15:29.813Z,15.60
2019-03-21T13:17:52.189Z,16.70
2019-03-21T13:20:20.435Z,16.60
2019-03-21T13:22:52.962Z,16.20
2019-03-21T13:25:18.649Z,16.60
2019-03-21T13:27:47.041Z,17.40
2019-03-21T13:30:15.286Z,16.30
2019-03-21T13:32:43.535Z,16.50
2019-03-21T13:35:11.774Z,15.80
2019-03-21T13:37:40.015Z,16.00
2019-03-21T13:40:08.260Z,15.60
2019-03-21T13:42:36.496Z,15.70
2019-03-21T13:45:07.653Z,16.50
2019-03-21T13:47:35.888Z,16.80
2019-03-21T13:50:06.668Z,16.20
2019-03-21T13:52:34.902Z,17.30
2019-03-21T13:55:04.892Z,16.50
2019-03-21T13:57:33.114Z,16.70
2019-03-21T14:00:01.356Z,17.10
2019-03-21T14:02:29.596Z,16.90
2019-03-21T14:04:57.828Z,17.40
2019-03-21T14:07:26.080Z,17.60
2019-03-21T14:09:54.337Z,17.00
2019-03-21T14:12:22.576Z,17.50
2019-03-21T14:14:50.906Z,16.10
2019-03-21T14:17:22.116Z,15.70
2019-03-21T14:19:49.190Z,15.90
2019-03-21T14:22:17.426Z,16.60
2019-03-21T14:24:45.670Z,15.90
2019-03-21T14:27:15.196Z,15.80
2019-03-21T14:29:43.428Z,15.40
2019-03-21T14:32:11.662Z,15.60
2019-03-21T14:34:39.913Z,16.00
2019-03-21T14:37:08.148Z,16.30
2019-03-21T14:39:36.464Z,16.00
2019-03-21T14:42:04.679Z,16.30
2019-03-21T14:44:32.934Z,17.70
2019-03-21T14:47:01.203Z,16.50
2019-03-21T14:49:29.490Z,16.60
2019-03-21T14:51:57.702Z,17.80
2019-03-21T14:54:25.962Z,18.60
2019-03-21T14:56:54.198Z,18.30
2019-03-21T14:59:22.416Z,18.00
2019-03-21T15:01:50.660Z,17.40
2019-03-21T15:04:18.922Z,15.70
2019-03-21T15:06:47.162Z,15.60
2019-03-21T15:09:15.408Z,18.20
2019-03-21T15:11:43.700Z,18.80
2019-03-21T15:14:11.954Z,19.10
2019-03-21T15:16:40.185Z,19.10
2019-03-21T15:19:08.412Z,18.60
2019-03-21T15:21:36.674Z,18.50
2019-03-21T15:24:04.902Z,18.60
2019-03-21T15:26:33.152Z,19.00
2019-03-21T15:29:01.383Z,20.00
2019-03-21T15:31:29.632Z,20.70
2019-03-21T15:33:57.869Z,19.60
2019-03-21T15:36:26.098Z,18.30
2019-03-21T15:38:54.340Z,18.20
2019-03-21T15:41:22.558Z,20.40
2019-03-21T15:43:50.813Z,20.80
2019-03-21T15:46:19.032Z,21.00
2019-03-21T15:48:47.284Z,21.50
2019-03-21T15:51:15.544Z,22.50
2019-03-21T15:53:53.232Z,22.00
2019-03-21T15:56:13.731Z,22.80
2019-03-21T15:58:41.986Z,23.60
2019-03-21T16:01:10.194Z,23.60
2019-03-21T16:03:38.448Z,24.50
2019-03-21T16:06:06.696Z,24.80
2019-03-21T16:08:34.934Z,24.60
2019-03-21T16:11:03.358Z,24.30
2019-03-21T16:13:31.563Z,24.90
2019-03-21T16:15:59.816Z,24.90
2019-03-21T16:18:28.044Z,25.80
2019-03-21T16:20:56.293Z,25.90
2019-03-21T16:23:24.503Z,26.80
2019-03-21T16:25:52.755Z,26.70
2019-03-21T16:28:20.999Z,27.00
2019-03-21T16:30:49.237Z,27.20
2019-03-21T16:33:17.479Z,26.90
2019-03-21T16:35:45.707Z,27.10
2019-03-21T16:38:13.936Z,27.10
2019-03-21T16:40:42.184Z,27.30
2019-03-21T16:43:10.417Z,28.10
2019-03-21T16:45:38.780Z,28.00
2019-03-21T16:48:09.247Z,27.90
2019-03-21T16:50:36.968Z,27.70
2019-03-21T16:53:05.229Z,28.20
2019-03-21T16:55:33.504Z,28.70
2019-03-21T16:58:01.799Z,29.40
2019-03-21T17:00:30.048Z,29.60
2019-03-21T17:02:58.288Z,29.80
2019-03-21T17:05:26.530Z,30.10
2019-03-21T17:07:54.787Z,29.90
2019-03-21T17:10:23.003Z,30.00
2019-03-21T17:12:51.268Z,30.70
2019-03-21T17:15:19.486Z,30.80
2019-03-21T17:17:47.808Z,31.30
2019-03-21T17:20:16.040Z,32.80
2019-03-21T17:22:44.278Z,32.40
2019-03-21T17:25:12.524Z,32.90
2019-03-21T17:27:40.778Z,33.30
2019-03-21T17:30:13.965Z,35.20
2019-03-21T17:32:42.210Z,36.50
2019-03-21T17:35:10.491Z,36.90
2019-03-21T17:37:38.795Z,36.70
2019-03-21T17:40:08.759Z,37.50
2019-03-21T17:42:36.996Z,37.20
2019-03-21T17:45:16.234Z,37.70
2019-03-21T17:47:44.466Z,39.30
2019-03-21T17:50:14.250Z,41.30
2019-03-21T17:52:42.480Z,40.70
2019-03-21T17:55:10.736Z,41.40
2019-03-21T17:57:38.989Z,40.70
2019-03-21T18:00:10.732Z,40.40
2019-03-21T18:02:38.957Z,40.20
2019-03-21T18:05:07.397Z,40.10
2019-03-21T18:07:55.040Z,39.70
2019-03-21T18:10:33.574Z,40.00
2019-03-21T18:13:02.000Z,40.90
2019-03-21T18:15:30.233Z,40.20
2019-03-21T18:18:01.520Z,41.60
2019-03-21T18:20:29.505Z,40.70
2019-03-21T18:22:57.768Z,40.10
2019-03-21T18:25:26.022Z,40.60
2019-03-21T18:27:54.262Z,41.20
2019-03-21T18:30:23.638Z,42.20
2019-03-21T18:32:51.906Z,42.60
2019-03-21T18:35:20.149Z,43.90
2019-03-21T18:37:48.365Z,44.80
2019-03-21T18:40:16.618Z,42.80
2019-03-21T18:42:44.881Z,43.00
2019-03-21T18:45:13.952Z,43.50
2019-03-21T18:47:42.200Z,42.20
2019-03-21T18:50:12.573Z,41.20
2019-03-21T18:52:40.825Z,41.20
2019-03-21T18:55:09.056Z,39.80
2019-03-21T18:57:37.482Z,39.70
2019-03-21T19:00:11.828Z,39.00
2019-03-21T19:02:40.042Z,38.80
2019-03-21T19:05:08.262Z,39.30
2019-03-21T19:07:36.554Z,39.50
2019-03-21T19:10:07.698Z,38.90
2019-03-21T19:12:35.921Z,38.40
2019-03-21T19:15:06.341Z,38.50
2019-03-21T19:17:34.563Z,39.10
2019-03-21T19:20:02.866Z,39.40
2019-03-21T19:22:31.120Z,38.90
2019-03-21T19:24:59.335Z,39.90
2019-03-21T19:27:27.565Z,41.70
2019-03-21T19:29:55.821Z,41.40
2019-03-21T19:32:24.041Z,41.30
2019-03-21T19:34:52.254Z,41.70
2019-03-21T19:37:20.510Z,42.80
2019-03-21T19:39:48.747Z,41.90
2019-03-21T19:42:16.999Z,43.10
2019-03-21T19:44:45.223Z,44.50
2019-03-21T19:47:23.129Z,46.60
2019-03-21T19:49:43.429Z,47.30
2019-03-21T19:52:11.672Z,48.60
2019-03-21T19:54:39.924Z,48.80
2019-03-21T19:57:08.151Z,52.60
2019-03-21T19:59:36.400Z,49.90
2019-03-21T20:02:04.636Z,51.30
2019-03-21T20:04:32.892Z,53.90
2019-03-21T20:07:01.140Z,52.20
2019-03-21T20:09:29.368Z,53.50
2019-03-21T20:11:57.768Z,56.90
2019-03-21T20:14:25.999Z,57.80
2019-03-21T20:16:54.235Z,59.40
2019-03-21T20:19:22.484Z,60.90
2019-03-21T20:21:50.709Z,62.10
2019-03-21T20:24:18.949Z,64.40
2019-03-21T20:26:47.197Z,65.70
2019-03-21T20:29:15.419Z,67.80
2019-03-21T20:31:43.639Z,68.70
2019-03-21T20:34:13.004Z,69.10
2019-03-21T20:36:41.406Z,70.70
2019-03-21T20:39:09.660Z,71.70
2019-03-21T20:41:37.927Z,73.50
2019-03-21T20:44:14.733Z,72.10
2019-03-21T20:46:36.096Z,72.30
2019-03-21T20:49:04.338Z,71.20
2019-03-21T20:51:32.559Z,71.40
2019-03-21T20:54:00.788Z,73.10
2019-03-21T20:56:29.062Z,74.20
2019-03-21T20:58:57.304Z,75.40
2019-03-21T21:01:25.530Z,75.20
2019-03-21T21:03:53.781Z,75.40
2019-03-21T21:06:22.004Z,76.30
2019-03-21T21:08:50.265Z,75.90
2019-03-21T21:11:18.777Z,76.30
2019-03-21T21:13:47.549Z,76.80
2019-03-21T21:16:16.060Z,77.20
2019-03-21T21:18:44.296Z,77.60
2019-03-21T21:21:12.608Z,77.00
2019-03-21T21:23:40.832Z,76.60
2019-03-21T21:26:09.065Z,77.50
2019-03-21T21:28:37.296Z,78.40
2019-03-21T21:31:05.533Z,75.40
2019-03-21T21:33:33.805Z,78.10
2019-03-21T21:36:02.032Z,75.90
2019-03-21T21:38:30.256Z,77.30
2019-03-21T21:40:58.500Z,82.10
2019-03-21T21:43:26.757Z,80.30
2019-03-21T21:45:54.982Z,82.30
2019-03-21T21:48:23.202Z,82.40
2019-03-21T21:50:51.455Z,83.50
2019-03-21T21:53:19.685Z,85.10
2019-03-21T21:55:47.903Z,87.50
2019-03-21T21:58:16.156Z,90.20
2019-03-21T22:00:44.367Z,90.40
2019-03-21T22:03:12.595Z,91.30
2019-03-21T22:05:40.836Z,91.30
2019-03-21T22:08:09.069Z,90.90
2019-03-21T22:10:37.318Z,92.00
2019-03-21T22:13:05.539Z,92.60
2019-03-21T22:15:33.756Z,91.90
2019-03-21T22:18:01.998Z,91.60
2019-03-21T22:20:30.225Z,87.20
2019-03-21T22:22:58.478Z,90.00
2019-03-21T22:25:26.710Z,92.00
2019-03-21T22:27:54.988Z,92.20
2019-03-21T22:30:23.235Z,93.30
2019-03-21T22:32:51.484Z,93.60
2019-03-21T22:35:19.707Z,93.70
2019-03-21T22:37:47.934Z,94.50
2019-03-21T22:40:18.378Z,94.50
2019-03-21T22:42:46.611Z,94.90
2019-03-21T22:45:16.082Z,94.40
2019-03-21T22:47:44.334Z,95.00
2019-03-21T22:50:17.023Z,95.00
2019-03-21T22:52:45.618Z,96.00
2019-03-21T22:55:14.105Z,97.00
2019-03-21T22:57:42.336Z,97.90
2019-03-21T23:00:20.286Z,98.20
2019-03-21T23:02:48.505Z,99.20
2019-03-21T23:05:16.763Z,98.60
2019-03-21T23:07:44.993Z,98.80
2019-03-21T23:10:13.231Z,99.10
2019-03-21T23:12:42.104Z,99.50
2019-03-21T23:15:13.922Z,99.70
2019-03-21T23:17:42.169Z,99.30
2019-03-21T23:20:12.638Z,98.70
2019-03-21T23:22:40.872Z,98.90
2019-03-21T23:25:09.557Z,98.50
2019-03-21T23:27:37.791Z,99.90
2019-03-21T23:30:11.978Z,99.90
2019-03-21T23:32:40.241Z,99.90
2019-03-21T23:35:08.493Z,99.90
2019-03-21T23:37:37.266Z,99.70
2019-03-21T23:40:07.256Z,99.90
2019-03-21T23:42:35.482Z,99.90
2019-03-21T23:45:05.748Z,99.90
2019-03-21T23:47:34.076Z,99.90
2019-03-21T23:50:02.295Z,99.90
2019-03-21T23:52:30.523Z,99.90
2019-03-21T23:54:58.801Z,99.90
2019-03-21T23:57:27.016Z,99.90
2019-03-21T23:59:58.492Z,99.90
